createdAt,value
2023-04-02T00:12:46.163Z,12055.37869
2023-04-02T00:27:48.433Z,12535.99179
2023-04-02T00:42:50.702Z,12535.99179
2023-04-02T00:57:52.810Z,12535.99179
2023-04-02T01:12:54.915Z,12535.99179
2023-04-02T01:27:57.129Z,12535.99179
2023-04-02T01:42:59.279Z,12535.99179
2023-04-02T01:58:01.366Z,12535.99179
2023-04-02T02:13:03.416Z,12535.99179
2023-04-02T02:28:05.578Z,12535.99179
2023-04-02T02:43:07.766Z,12535.99179
2023-04-02T02:58:09.968Z,12535.99179
2023-04-02T03:13:12.232Z,12535.99179
2023-04-02T03:28:14.331Z,12535.99179
2023-04-02T03:43:16.606Z,12535.99179
2023-04-02T04:13:19.793Z,12535.99179
2023-04-02T04:28:22.257Z,12535.99179
2023-04-02T04:43:24.308Z,12535.99179
2023-04-02T04:58:26.568Z,12535.99179
2023-04-02T05:13:28.621Z,12535.99179
2023-04-02T05:28:30.766Z,12535.99179
2023-04-02T05:43:32.878Z,12535.99179
2023-04-02T05:58:36.690Z,12535.99179
2023-04-02T06:13:39.036Z,10579.43983
2023-04-02T06:28:41.104Z,8492.12354
2023-04-02T06:43:43.204Z,7261.06527
2023-04-02T06:58:45.374Z,6313.44163
2023-04-02T07:13:47.518Z,5799.18088
2023-04-02T07:28:49.636Z,5694.16554
2023-04-02T07:43:51.735Z,5354.77821
2023-04-02T07:58:53.757Z,5289.72016
2023-04-02T08:13:55.881Z,4921.73965
2023-04-02T08:28:57.980Z,4792.54921
2023-04-02T08:44:00.159Z,4477.84861
2023-04-02T08:59:02.248Z,4579.28854
2023-04-02T09:14:04.387Z,4499.2056
2023-04-02T09:29:06.434Z,4177.12228
2023-04-02T09:44:08.570Z,4019.88686
2023-04-02T09:59:10.659Z,3871.40953
2023-04-02T10:14:12.780Z,3803.76394
2023-04-02T10:29:14.900Z,3553.04506
2023-04-02T10:44:20.587Z,3598.22045
2023-04-02T10:59:23.213Z,3468.13774
2023-04-02T11:14:25.381Z,3399.39989
2023-04-02T11:29:27.570Z,3335.29807
2023-04-02T11:44:29.903Z,3359.05093
2023-04-02T11:59:32.137Z,2788.17786
2023-04-02T12:14:34.325Z,2739.59394
2023-04-02T12:29:36.494Z,2674.85874
2023-04-02T12:44:38.751Z,2664.78395
2023-04-02T12:59:40.899Z,2639.92589
2023-04-02T13:14:43.270Z,2584.4754
2023-04-02T13:29:45.456Z,2312.09201
2023-04-02T13:44:47.623Z,2256.77882
2023-04-02T13:59:49.786Z,2420.87305
2023-04-02T14:14:52.016Z,2551.84903
2023-04-02T14:29:54.250Z,2639.92589
2023-04-02T14:44:56.410Z,2844.22163
2023-04-02T14:59:58.578Z,3466.01396
2023-04-02T15:15:00.736Z,3811.44831
2023-04-02T15:30:02.972Z,4080.75032
2023-04-02T15:45:05.247Z,4274.92498
2023-04-02T16:00:07.513Z,4377.41737
2023-04-02T16:15:09.782Z,4620.40868
2023-04-02T16:30:12.042Z,4926.02315
2023-04-02T16:45:14.483Z,5004.42139
2023-04-02T17:00:16.754Z,6827.50349
2023-04-02T17:15:27.957Z,7960.61935
2023-04-02T17:30:31.170Z,8492.12354
2023-04-02T17:45:33.622Z,6158.8688
2023-04-02T18:00:36.140Z,7684.9971
2023-04-02T18:15:38.677Z,8707.69282
2023-04-02T18:30:41.185Z,9158.57658
2023-04-02T18:45:43.447Z,9700.08623
2023-04-02T19:00:45.670Z,9929.82511
2023-04-02T19:15:47.911Z,10107.14341
2023-04-02T19:30:50.268Z,11263.68219
2023-04-02T19:45:52.554Z,10669.1806
2023-04-02T20:00:54.850Z,10026.57274
2023-04-02T20:15:57.111Z,9433.33387
2023-04-02T20:30:59.554Z,9180.86022
2023-04-02T20:46:01.880Z,10262.91987
2023-04-02T21:01:04.152Z,10404.41233
2023-04-02T21:16:06.375Z,10433.18029
2023-04-02T21:31:08.817Z,10669.1806
2023-04-02T21:46:11.089Z,11263.68219
2023-04-02T22:01:23.954Z,12494.48189
2023-04-02T22:16:29.612Z,12535.99179
2023-04-02T22:31:32.071Z,12535.99179
2023-04-02T22:46:34.499Z,12535.99179
2023-04-02T23:01:37.008Z,12535.99179
2023-04-02T23:16:39.298Z,12535.99179
2023-04-02T23:31:41.568Z,12344.60261
2023-04-02T23:46:43.778Z,12535.99179
